• Join FlightAware (Why Join?)
  • Login
  • US Flag 
02:03PM EDT


 

Airport Tracker/Info


-or-


 

Live Flight TrackerFlight Track Log ✈ TYR4059 ✈ 21-Apr-2013 ✈ LOWW / VIE - LPMA / FNC

Flight Track Log - Related Links

Times and Time Zones

All times are in EDT time to prevent confusion due to time zone crossing. See the TYR4059 flight status page for this flight to view local times or setup timezone preferences in your user account.

Time Position Orientation Groundspeed Altitude Reporting Facility
EDT Latitude Longitude Course Direction KTS MPH feet Rate Location/Type
04:07AM 47.9914 16.0690 251° West  Level Estimated
04:08AM 47.9512 15.9026 250° West  Level Estimated
04:09AM 47.9109 15.7365 250° West  Level Estimated
04:10AM 47.8703 15.5706 250° West  Level Estimated
04:11AM 47.8294 15.4050 250° West  Level Estimated
04:12AM 47.7884 15.2397 250° West  Level Estimated
04:13AM 47.7471 15.0746 250° West  Level Estimated
04:14AM 47.7055 14.9097 250° West  Level Estimated
04:15AM 47.6637 14.7452 249° West  Level Estimated
04:16AM 47.6217 14.5809 249° West  Level Estimated
04:17AM 47.5795 14.4169 249° West  Level Estimated
04:18AM 47.5370 14.2531 249° West  Level Estimated
04:19AM 47.4943 14.0896 249° West  Level Estimated
04:20AM 47.4513 13.9264 249° West  Level Estimated
04:21AM 47.4081 13.7634 249° West  Level Estimated
04:22AM 47.3647 13.6007 249° West  Level Estimated
04:23AM 47.3211 13.4383 248° West  Level Estimated
04:24AM 47.2772 13.2761 248° West  Level Estimated
04:25AM 47.2331 13.1142 248° West  Level Estimated
04:26AM 47.1888 12.9526 248° West  Level Estimated
04:27AM 47.1442 12.7912 248° West  Level Estimated
04:28AM 47.0994 12.6302 248° West  Level Estimated
04:29AM 47.0544 12.4693 248° West  Level Estimated
04:30AM 47.0092 12.3088 248° West  Level Estimated
04:31AM 46.9638 12.1485 247° West  Level Estimated
04:32AM 46.9181 11.9886 247° West  Level Estimated
04:33AM 46.8722 11.8288 247° West  Level Estimated
04:34AM 46.8261 11.6694 247° West  Level Estimated
04:35AM 46.7797 11.5102 247° West  Level Estimated
04:36AM 46.7332 11.3513 247° West  Level Estimated
04:37AM 46.6864 11.1927 247° West  Level Estimated
04:38AM 46.6394 11.0343 247° West  Level Estimated
04:39AM 46.5922 10.8763 247° West  Level Estimated
04:40AM 46.5447 10.7185 246° West  Level Estimated
04:41AM 46.4971 10.5610 246° West  Level Estimated
04:42AM 46.4492 10.4037 246° West  Level Estimated
04:43AM 46.4011 10.2467 246° West  Level Estimated
04:44AM 46.3528 10.0900 246° West  Level Estimated
04:45AM 46.3043 9.9336 246° West  Level Estimated
04:46AM 46.2556 9.7775 246° West  Level Estimated
04:47AM 46.2066 9.6216 246° West  Level Estimated
04:48AM 46.1575 9.4661 246° West  Level Estimated
04:49AM 46.1081 9.3108 245° Southwest  Level Estimated
04:50AM 46.0586 9.1558 245° Southwest  Level Estimated
04:51AM 46.0088 9.0010 245° Southwest  Level Estimated
04:52AM 45.9588 8.8465 245° Southwest  Level Estimated
04:53AM 45.9086 8.6924 245° Southwest  Level Estimated
04:54AM 45.8582 8.5385 245° Southwest  Level Estimated
04:55AM 45.8076 8.3848 245° Southwest  Level Estimated
04:56AM 45.7568 8.2315 245° Southwest  Level Estimated
04:57AM 45.7057 8.0784 245° Southwest  Level Estimated
04:58AM 45.6545 7.9256 244° Southwest  Level Estimated
04:59AM 45.6031 7.7731 244° Southwest  Level Estimated
05:00AM 45.5515 7.6209 244° Southwest  Level Estimated
05:01AM 45.4996 7.4689 244° Southwest  Level Estimated
05:02AM 45.4476 7.3172 244° Southwest  Level Estimated
05:03AM 45.3954 7.1659 244° Southwest  Level Estimated
05:04AM 45.3429 7.0148 244° Southwest  Level Estimated
05:05AM 45.2903 6.8639 244° Southwest  Level Estimated
05:06AM 45.2375 6.7134 244° Southwest  Level Estimated
05:07AM 45.1844 6.5631 243° Southwest  Level Estimated
05:08AM 45.1312 6.4131 243° Southwest  Level Estimated
05:09AM 45.0778 6.2634 243° Southwest  Level Estimated
05:10AM 45.0242 6.1140 243° Southwest  Level Estimated
05:11AM 44.9704 5.9648 243° Southwest  Level Estimated
05:12AM 44.9164 5.8159 243° Southwest  Level Estimated
05:13AM 44.8622 5.6674 243° Southwest  Level Estimated
05:14AM 44.8078 5.5191 243° Southwest  Level Estimated
05:15AM 44.7532 5.3710 243° Southwest  Level Estimated
05:16AM 44.6984 5.2233 242° Southwest  Level Estimated
05:17AM 44.6435 5.0758 242° Southwest  Level Estimated
05:18AM 44.5883 4.9286 242° Southwest  Level Estimated
05:19AM 44.5330 4.7817 242° Southwest  Level Estimated
05:20AM 44.4775 4.6351 242° Southwest  Level Estimated
05:21AM 44.4218 4.4887 242° Southwest  Level Estimated
05:22AM 44.3659 4.3426 242° Southwest  Level Estimated
05:23AM 44.3098 4.1969 242° Southwest  Level Estimated
05:24AM 44.2535 4.0514 242° Southwest  Level Estimated
05:25AM 44.1970 3.9061 242° Southwest  Level Estimated
05:26AM 44.1404 3.7612 241° Southwest  Level Estimated
05:27AM 44.0836 3.6165 241° Southwest  Level Estimated
05:28AM 44.0266 3.4721 241° Southwest  Level Estimated
05:29AM 43.9694 3.3280 241° Southwest  Level Estimated
05:30AM 43.9120 3.1841 241° Southwest  Level Estimated
05:31AM 43.8545 3.0405 241° Southwest  Level Estimated
05:32AM 43.7967 2.8973 241° Southwest  Level Estimated
05:33AM 43.7388 2.7543 241° Southwest  Level Estimated
05:34AM 43.6808 2.6115 241° Southwest  Level Estimated
05:35AM 43.6225 2.4690 241° Southwest  Level Estimated
05:36AM 43.5641 2.3269 240° Southwest  Level Estimated
05:37AM 43.5055 2.1850 240° Southwest  Level Estimated
05:38AM 43.4467 2.0433 240° Southwest  Level Estimated
05:39AM 43.3877 1.9020 240° Southwest  Level Estimated
05:40AM 43.3286 1.7609 240° Southwest  Level Estimated
05:41AM 43.2692 1.6201 240° Southwest  Level Estimated
05:42AM 43.2098 1.4796 240° Southwest  Level Estimated
05:43AM 43.1501 1.3393 240° Southwest  Level Estimated
05:44AM 43.0903 1.1993 240° Southwest  Level Estimated
05:45AM 43.0303 1.0596 240° Southwest  Level Estimated
05:46AM 42.9701 0.9202 240° Southwest  Level Estimated
05:47AM 42.9098 0.7810 239° Southwest  Level Estimated
05:48AM 42.8493 0.6421 239° Southwest  Level Estimated
05:49AM 42.7887 0.5035 239° Southwest  Level Estimated
05:50AM 42.7278 0.3651 239° Southwest  Level Estimated
05:51AM 42.6668 0.2271 239° Southwest  Level Estimated
05:52AM 42.6056 0.0893 239° Southwest  Level Estimated
05:53AM 42.5443 -0.0483 239° Southwest  Level Estimated
05:54AM 42.4828 -0.1855 239° Southwest  Level Estimated
05:55AM 42.4212 -0.3225 239° Southwest  Level Estimated
05:56AM 42.3593 -0.4592 239° Southwest  Level Estimated
05:57AM 42.2974 -0.5957 238° Southwest  Level Estimated
05:58AM 42.2352 -0.7319 238° Southwest  Level Estimated
05:59AM 42.1729 -0.8678 238° Southwest  Level Estimated
06:00AM 42.1104 -1.0034 238° Southwest  Level Estimated
06:01AM 42.0478 -1.1388 238° Southwest  Level Estimated
06:02AM 41.9850 -1.2739 238° Southwest  Level Estimated
06:03AM 41.9221 -1.4088 238° Southwest  Level Estimated
06:04AM 41.8590 -1.5434 238° Southwest  Level Estimated
06:05AM 41.7957 -1.6777 238° Southwest  Level Estimated
06:06AM 41.7323 -1.8117 238° Southwest  Level Estimated
06:07AM 41.6687 -1.9455 238° Southwest  Level Estimated
06:08AM 41.6050 -2.0791 237° Southwest  Level Estimated
06:09AM 41.5411 -2.2123 237° Southwest  Level Estimated
06:10AM 41.4771 -2.3453 237° Southwest  Level Estimated
06:11AM 41.4129 -2.4780 237° Southwest  Level Estimated
06:12AM 41.3486 -2.6105 237° Southwest  Level Estimated
06:13AM 41.2841 -2.7427 237° Southwest  Level Estimated
06:14AM 41.2195 -2.8747 237° Southwest  Level Estimated
06:15AM 41.1547 -3.0064 237° Southwest  Level Estimated
06:16AM 41.0897 -3.1378 237° Southwest  Level Estimated
06:17AM 41.0246 -3.2690 237° Southwest  Level Estimated
06:18AM 40.9594 -3.3999 237° Southwest  Level Estimated
06:19AM 40.8940 -3.5305 237° Southwest  Level Estimated
06:20AM 40.8285 -3.6609 236° Southwest  Level Estimated
06:21AM 40.7628 -3.7910 236° Southwest  Level Estimated
06:22AM 40.6970 -3.9209 236° Southwest  Level Estimated
06:23AM 40.6310 -4.0505 236° Southwest  Level Estimated
06:24AM 40.5649 -4.1799 236° Southwest  Level Estimated
06:25AM 40.4986 -4.3090 236° Southwest  Level Estimated
06:26AM 40.4322 -4.4378 236° Southwest  Level Estimated
06:27AM 40.3657 -4.5665 236° Southwest  Level Estimated
06:28AM 40.2990 -4.6948 236° Southwest  Level Estimated
06:29AM 40.2322 -4.8229 236° Southwest  Level Estimated
06:30AM 40.1652 -4.9507 236° Southwest  Level Estimated
06:31AM 40.0981 -5.0783 236° Southwest  Level Estimated
06:32AM 40.0308 -5.2056 235° Southwest  Level Estimated
06:33AM 39.9635 -5.3327 235° Southwest  Level Estimated
06:34AM 39.8959 -5.4595 235° Southwest  Level Estimated
06:35AM 39.8283 -5.5861 235° Southwest  Level Estimated
06:36AM 39.7605 -5.7125 235° Southwest  Level Estimated
06:37AM 39.6925 -5.8385 235° Southwest  Level Estimated
06:38AM 39.6245 -5.9644 235° Southwest  Level Estimated
06:39AM 39.5563 -6.0900 235° Southwest  Level Estimated
06:40AM 39.4879 -6.2153 235° Southwest  Level Estimated
06:41AM 39.4194 -6.3404 235° Southwest  Level Estimated
06:42AM 39.3508 -6.4652 235° Southwest  Level Estimated
06:43AM 39.2821 -6.5898 235° Southwest  Level Estimated
06:44AM 39.2132 -6.7142 234° Southwest  Level Estimated
06:45AM 39.1442 -6.8383 234° Southwest  Level Estimated
06:46AM 39.0750 -6.9622 234° Southwest  Level Estimated
06:47AM 39.0058 -7.0858 234° Southwest  Level Estimated
06:48AM 38.9364 -7.2092 234° Southwest  Level Estimated
06:49AM 38.8668 -7.3323 234° Southwest  Level Estimated
06:50AM 38.7972 -7.4552 234° Southwest  Level Estimated
06:51AM 38.7274 -7.5779 234° Southwest  Level Estimated
06:52AM 38.6575 -7.7003 234° Southwest  Level Estimated
06:53AM 38.5874 -7.8225 234° Southwest  Level Estimated
06:54AM 38.5173 -7.9444 234° Southwest  Level Estimated
06:55AM 38.4470 -8.0662 234° Southwest  Level Estimated
06:56AM 38.3765 -8.1876 234° Southwest  Level Estimated
06:57AM 38.3060 -8.3089 233° Southwest  Level Estimated
06:58AM 38.2353 -8.4299 233° Southwest  Level Estimated
06:59AM 38.1645 -8.5506 233° Southwest  Level Estimated
07:00AM 38.0936 -8.6712 233° Southwest  Level Estimated
07:01AM 38.0226 -8.7915 233° Southwest  Level Estimated
07:02AM 37.9514 -8.9115 233° Southwest  Level Estimated
07:03AM 37.8801 -9.0314 233° Southwest  Level Estimated
07:04AM 37.8087 -9.1510 233° Southwest  Level Estimated
07:05AM 37.7372 -9.2703 233° Southwest  Level Estimated
07:06AM 37.6655 -9.3895 233° Southwest  Level Estimated
07:07AM 37.5937 -9.5084 233° Southwest  Level Estimated
07:08AM 37.5219 -9.6271 233° Southwest  Level Estimated
07:09AM 37.4498 -9.7455 233° Southwest  Level Estimated
07:10AM 37.3777 -9.8637 233° Southwest  Level Estimated
07:11AM 37.3055 -9.9817 232° Southwest  Level Estimated
07:12AM 37.2331 -10.0995 232° Southwest  Level Estimated
07:13AM 37.1606 -10.2170 232° Southwest  Level Estimated
07:14AM 37.0881 -10.3343 232° Southwest  Level Estimated
07:15AM 37.0153 -10.4514 232° Southwest  Level Estimated
07:16AM 36.9425 -10.5683 232° Southwest  Level Estimated
07:17AM 36.8696 -10.6849 232° Southwest  Level Estimated
07:18AM 36.7965 -10.8013 232° Southwest  Level Estimated
07:19AM 36.7234 -10.9176 232° Southwest  Level Estimated
07:20AM 36.6501 -11.0335 232° Southwest  Level Estimated
07:21AM 36.5767 -11.1493 232° Southwest  Level Estimated
07:22AM 36.5032 -11.2648 232° Southwest  Level Estimated
07:23AM 36.4296 -11.3801 232° Southwest  Level Estimated
07:24AM 36.3559 -11.4952 232° Southwest  Level Estimated
07:25AM 36.2820 -11.6101 231° Southwest  Level Estimated
07:26AM 36.2081 -11.7248 231° Southwest  Level Estimated
07:27AM 36.1340 -11.8392 231° Southwest  Level Estimated
07:28AM 36.0599 -11.9535 231° Southwest  Level Estimated
07:29AM 35.9856 -12.0675 231° Southwest  Level Estimated
07:30AM 35.9113 -12.1813 231° Southwest  Level Estimated
07:31AM 35.8368 -12.2949 231° Southwest  Level Estimated
07:32AM 35.7622 -12.4082 231° Southwest  Level Estimated
07:33AM 35.6875 -12.5214 231° Southwest  Level Estimated
07:34AM 35.6127 -12.6344 231° Southwest  Level Estimated
07:35AM 35.5378 -12.7471 231° Southwest  Level Estimated
07:36AM 35.4628 -12.8596 231° Southwest  Level Estimated
07:37AM 35.3877 -12.9719 231° Southwest  Level Estimated
07:38AM 35.3124 -13.0841 231° Southwest  Level Estimated
07:39AM 35.2371 -13.1960 231° Southwest  Level Estimated
07:40AM 35.1617 -13.3076 230° Southwest  Level Estimated
07:41AM 35.0862 -13.4191 230° Southwest  Level Estimated
07:42AM 35.0105 -13.5304 230° Southwest  Level Estimated
07:43AM 34.9348 -13.6415 230° Southwest  Level Estimated
07:44AM 34.8590 -13.7523 230° Southwest  Level Estimated
07:45AM 34.7831 -13.8630 230° Southwest  Level Estimated
07:46AM 34.7070 -13.9735 230° Southwest  Level Estimated
07:47AM 34.6309 -14.0837 230° Southwest  Level Estimated
07:48AM 34.5547 -14.1938 230° Southwest  Level Estimated
07:49AM 34.4783 -14.3036 230° Southwest  Level Estimated
07:50AM 34.4019 -14.4133 230° Southwest  Level Estimated
07:51AM 34.3254 -14.5227 230° Southwest  Level Estimated
07:52AM 34.2488 -14.6320 230° Southwest  Level Estimated
07:53AM 34.1720 -14.7410 230° Southwest  Level Estimated
07:54AM 34.0952 -14.8499 230° Southwest  Level Estimated
07:55AM 34.0183 -14.9586 230° Southwest  Level Estimated
07:56AM 33.9413 -15.0670 229° Southwest  Level Estimated
07:57AM 33.8642 -15.1753 229° Southwest  Level Estimated
07:58AM 33.7870 -15.2833 229° Southwest  Level Estimated
07:59AM 33.7097 -15.3912 229° Southwest  Level Estimated
08:00AM 33.6324 -15.4989 229° Southwest  Level Estimated
08:01AM 33.5549 -15.6064 229° Southwest  Level Estimated
08:02AM 33.4773 -15.7137 229° Southwest  Level Estimated
08:03AM 33.3996 -15.8208 229° Southwest  Level Estimated
08:04AM 33.3219 -15.9277 229° Southwest  Level Estimated
08:05AM 33.2440 -16.0344 229° Southwest  Level Estimated
08:06AM 33.1661 -16.1409 229° Southwest  Level Estimated
08:07AM 33.0881 -16.2473 229° Southwest  Level Estimated
08:08AM 33.0100 -16.3534 229° Southwest  Level Estimated
08:09AM 32.9318 -16.4594 229° Southwest  Level Estimated
08:10AM 32.8535 -16.5652 229° Southwest  Level Estimated
08:11AM 32.7751 -16.6707 229° Southwest  Level Estimated
08:12AM 32.6979 -16.7745 229° Southwest  Level Estimated
08:13AM 32.6979 -16.7745 248° West  Level Estimated
08:14AM 32.6979 -16.7745 248° West  Level Estimated
08:15AM 32.6979 -16.7745 248° West  Level Estimated
08:16AM 32.6979 -16.7745 248° West  Level Estimated
08:17AM 32.6979 -16.7745 248° West  Level Estimated
08:18AM 32.6979 -16.7745 248° West  Level Estimated
08:19AM 32.6979 -16.7745 248° West  Level Estimated
08:20AM 32.6979 -16.7745 248° West  Level Estimated
08:21AM 32.6979 -16.7745 248° West  Level Estimated
08:22AM 32.6979 -16.7745 248° West  Level Estimated
08:23AM 32.6979 -16.7745 248° West  Level Estimated
08:24AM 32.6979 -16.7745 248° West  Level Estimated
08:25AM 32.6979 -16.7745 248° West  Level Estimated
08:26AM 32.6979 -16.7745 248° West  Level Estimated
08:27AM 32.6979 -16.7745 248° West  Level Estimated
08:28AM 32.6979 -16.7745 248° West  Level Estimated